Fulton, CA (95439)

5:45 AM PDT on April 24, 2017 (GMT -0700)
Larkfield - Saddlebrook | | Change Station

Elev 151 ft 38.51 °N, 122.76 °W | Updated 21 seconds ago

Mostly Cloudy
Mostly Cloudy
51.5 °F
Feels Like 51.5 °F
N
0.0
Wind Variable Wind from SSW

Today
High -- | Low -- °F
--% Chance of Precip.
Yesterday
High -- | Low -- °F
Precip. -- in
Pressure 29.98 in
Visibility 10.0 miles
Clouds Few 2900 ft
Mostly Cloudy 4600 ft
Mostly Cloudy 12000 ft
Dew Point 46 °F
Humidity 81%
Rainfall 0.00 in
Snow Depth Not available.
6:22 AM 7:56 PM
Waning Crescent, 6% visible
METAR KSTS 241153Z AUTO 24003KT 10SM FEW029 BKN046 BKN120 11/07 A3000 RMK AO2 SLP152 T01110067 10122 20106 53001
Pressure 29.98 in
Visibility 10.0 miles
Clouds Few 2900 ft
Mostly Cloudy 4600 ft
Mostly Cloudy 12000 ft
Dew Point 46 °F
Humidity 81%
Rainfall 0.00 in
Snow Depth Not available.
6:22 AM 7:56 PM
Waning Crescent, 6% visible
METAR KSTS 241153Z AUTO 24003KT 10SM FEW029 BKN046 BKN120 11/07 A3000 RMK AO2 SLP152 T01110067 10122 20106 53001

Get Severe Weather Alerts

Thanks for signing up!

Be on the lookout for a verification email in your inbox.

You'll start receiving the daily forecast at 8 AM.

×

10-Day Weather Forecast

Almanac

Astronomy

Apr. 24, 2017 Rise Set
Actual Time
Civil Twilight
Nautical Twilight
Astronomical Twilight
Moon
Length of Visible Light
Length of Day
Tomorrow will be .
, % of the Moon is Illuminated

Today's Extremes

State Highs State Lows

Community

WunderPhotos

WunderBlog® & News

Nearby

Air Quality

  Air Quality AQ Index Pollutant
Not available.

Snow Depth

Station Depth Elevation

Earthquake Activity

City Distance Mag. Time & Date
Minimum magnitude displayed is 2.5.

Coastal Water Temperatures

Place Temperature

Stations

Nearby Weather Stations

Station Location Temp. Windchill Dew Point Humidity Wind Precip. Elev Updated Type
                   

Watches & Warnings

There are currently no watches in effect.